Time;durP1;ratioP1;P1;durP2;ratioP2;P2;SDS_P1;SDS_P2;PMS_P1;PMS_P2;Temp;Humidity;BMP_temperature;BMP_pressure;BME280_temperature;BME280_humidity;BME280_pressure;Samples;Min_cycle;Max_cycle;Signal;HPM_P1;HPM_P2
2023/12/08 00:00:37;;;;;;;3.83;3.73;;;16.10;65.00;;;;;;5130453;27;43428;-69
2023/12/08 00:03:06;;;;;;;3.83;3.73;;;16.10;64.30;;;;;;5130800;27;43452;-69
2023/12/08 00:05:34;;;;;;;3.60;3.50;;;16.10;64.30;;;;;;5131428;27;43413;-70
2023/12/08 00:08:03;;;;;;;3.67;3.57;;;16.20;64.30;;;;;;5130143;27;43855;-70
2023/12/08 00:10:30;;;;;;;3.63;3.50;;;16.30;63.90;;;;;;5129977;27;43372;-70
2023/12/08 00:12:58;;;;;;;3.80;3.70;;;16.40;63.60;;;;;;5130500;27;43390;-70
2023/12/08 00:15:26;;;;;;;3.73;3.63;;;16.40;63.60;;;;;;5129488;27;43417;-68
2023/12/08 00:17:55;;;;;;;3.60;3.50;;;16.30;63.60;;;;;;5134718;27;44382;-68
2023/12/08 00:20:25;;;;;;;3.77;3.67;;;16.30;63.70;;;;;;5134532;27;43377;-68
2023/12/08 00:22:53;;;;;;;3.60;3.50;;;16.30;63.70;;;;;;5134310;27;43513;-69
2023/12/08 00:25:21;;;;;;;3.90;3.80;;;16.30;63.80;;;;;;5135098;27;43367;-68
2023/12/08 00:27:49;;;;;;;3.27;3.17;;;16.30;63.80;;;;;;5134721;27;43607;-69
2023/12/08 00:30:17;;;;;;;3.63;3.53;;;16.20;63.90;;;;;;5134801;27;43460;-71
2023/12/08 00:32:46;;;;;;;3.43;3.33;;;16.20;64.00;;;;;;5134937;27;43531;-70
2023/12/08 00:35:14;;;;;;;3.50;3.40;;;16.20;64.00;;;;;;5118697;27;43746;-72
2023/12/08 00:37:44;;;;;;;3.47;3.37;;;16.20;64.90;;;;;;5108511;27;43619;-72
2023/12/08 00:40:13;;;;;;;3.67;3.57;;;16.20;64.20;;;;;;5109020;27;43331;-72
2023/12/08 00:42:41;;;;;;;3.40;3.30;;;16.20;64.20;;;;;;5109229;27;43967;-72
2023/12/08 00:45:10;;;;;;;3.30;3.20;;;16.20;64.30;;;;;;5109280;27;43906;-72
2023/12/08 00:47:38;;;;;;;3.23;3.13;;;16.20;64.30;;;;;;5108576;27;43917;-72
2023/12/08 00:50:08;;;;;;;3.17;3.10;;;16.20;64.30;;;;;;5108703;27;43396;-72
2023/12/08 00:52:36;;;;;;;3.40;3.30;;;16.10;64.30;;;;;;5109133;27;43446;-72
2023/12/08 00:55:06;;;;;;;3.87;3.77;;;16.10;64.30;;;;;;5107308;27;43945;-72
2023/12/08 00:57:34;;;;;;;3.60;3.50;;;16.20;64.40;;;;;;5108921;27;43833;-70
2023/12/08 01:00:04;;;;;;;3.33;3.23;;;16.20;64.00;;;;;;5108593;27;43375;-72
2023/12/08 01:02:32;;;;;;;3.47;3.37;;;16.30;63.90;;;;;;5108510;27;43437;-72
2023/12/08 01:05:00;;;;;;;3.33;3.23;;;16.20;63.80;;;;;;5103688;27;43609;-72
2023/12/08 01:07:28;;;;;;;3.30;3.20;;;16.30;64.00;;;;;;5107973;27;43694;-72
2023/12/08 01:09:57;;;;;;;3.30;3.20;;;16.20;64.00;;;;;;5108169;27;43450;-72
2023/12/08 01:12:26;;;;;;;3.70;3.60;;;16.20;64.00;;;;;;5104369;27;43452;-71
2023/12/08 01:14:54;;;;;;;2.80;2.80;;;16.20;64.00;;;;;;5108624;27;43430;-72
2023/12/08 01:17:22;;;;;;;3.20;3.10;;;16.20;64.10;;;;;;5108595;27;43881;-72
2023/12/08 01:19:51;;;;;;;3.40;3.30;;;16.20;64.10;;;;;;5108250;27;43438;-72
2023/12/08 01:22:19;;;;;;;3.40;3.30;;;16.20;64.10;;;;;;5101655;27;43418;-72
2023/12/08 01:24:48;;;;;;;3.20;3.10;;;16.20;64.20;;;;;;5113683;27;43419;-71
2023/12/08 01:27:16;;;;;;;3.40;3.30;;;16.20;64.40;;;;;;5126452;27;44089;-70
2023/12/08 01:29:45;;;;;;;3.23;3.13;;;16.10;64.30;;;;;;5129709;27;44719;-70
2023/12/08 01:32:13;;;;;;;3.03;3.03;;;16.20;64.30;;;;;;5133140;27;43395;-70
2023/12/08 01:34:42;;;;;;;3.27;3.17;;;16.20;64.00;;;;;;5131619;27;43524;-70
2023/12/08 01:37:10;;;;;;;3.27;3.17;;;16.20;63.80;;;;;;5133098;27;43602;-70
2023/12/08 01:39:38;;;;;;;2.90;2.90;;;16.30;63.90;;;;;;5124455;27;45013;-71
2023/12/08 01:42:06;;;;;;;3.07;2.97;;;16.20;63.90;;;;;;5132409;27;43395;-71
2023/12/08 01:44:34;;;;;;;3.00;2.90;;;16.20;64.00;;;;;;5116834;27;43504;-70
2023/12/08 01:47:04;;;;;;;3.43;3.33;;;16.20;64.00;;;;;;5134521;27;43763;-71
2023/12/08 01:49:32;;;;;;;2.77;2.77;;;16.20;64.00;;;;;;5134227;27;43686;-70
2023/12/08 01:52:00;;;;;;;3.13;3.03;;;16.20;64.00;;;;;;5132849;27;43343;-70
2023/12/08 01:54:28;;;;;;;3.00;2.90;;;16.20;64.10;;;;;;5134936;27;43433;-69
2023/12/08 01:56:56;;;;;;;3.00;2.90;;;16.20;64.10;;;;;;5127676;27;45387;-70
2023/12/08 01:59:24;;;;;;;2.83;2.83;;;16.20;64.20;;;;;;5134457;27;43357;-70
2023/12/08 02:01:52;;;;;;;2.83;2.73;;;16.10;64.20;;;;;;5134312;27;44414;-69
2023/12/08 02:04:21;;;;;;;2.60;2.60;;;16.10;64.20;;;;;;5134667;27;43427;-70
2023/12/08 02:06:49;;;;;;;2.80;2.70;;;16.10;64.20;;;;;;5134153;27;43927;-70
2023/12/08 02:09:17;;;;;;;2.83;2.73;;;16.10;64.30;;;;;;5134257;27;43460;-70
2023/12/08 02:11:45;;;;;;;3.20;3.10;;;16.10;64.30;;;;;;5129870;27;43472;-70
2023/12/08 02:14:15;;;;;;;2.70;2.70;;;16.10;64.30;;;;;;5134466;27;43394;-69
2023/12/08 02:16:46;;;;;;;2.50;2.50;;;16.10;64.30;;;;;;5128630;27;43862;-70
2023/12/08 02:19:14;;;;;;;3.00;3.00;;;16.10;64.30;;;;;;5138754;27;43422;-69
2023/12/08 02:21:44;;;;;;;2.90;2.80;;;16.10;64.30;;;;;;5133494;27;43411;-70
2023/12/08 02:24:13;;;;;;;2.80;2.80;;;16.10;64.30;;;;;;5128229;27;43351;-70
2023/12/08 02:26:41;;;;;;;2.93;2.93;;;16.20;64.20;;;;;;5124594;27;45728;-70
2023/12/08 02:29:09;;;;;;;2.70;2.70;;;16.30;64.50;;;;;;5133210;27;43513;-69
2023/12/08 02:31:42;;;;;;;2.70;2.70;;;16.30;63.50;;;;;;5133995;27;43404;-70
2023/12/08 02:34:10;;;;;;;2.60;2.60;;;16.30;63.60;;;;;;5134322;27;43385;-70
2023/12/08 02:36:38;;;;;;;3.00;2.90;;;16.30;63.70;;;;;;5131986;27;43847;-70
2023/12/08 02:39:06;;;;;;;3.17;3.10;;;16.30;63.80;;;;;;5124180;27;44693;-70
2023/12/08 02:41:36;;;;;;;2.67;2.67;;;16.20;63.70;;;;;;5131449;27;43548;-70
2023/12/08 02:44:04;;;;;;;2.80;2.70;;;16.20;63.80;;;;;;5132821;27;43346;-69
2023/12/08 02:46:32;;;;;;;2.67;2.67;;;16.20;63.90;;;;;;5131742;27;43861;-70
2023/12/08 02:49:00;;;;;;;2.80;2.80;;;16.20;64.00;;;;;;5135241;27;43433;-70
2023/12/08 02:51:28;;;;;;;2.90;2.90;;;16.20;64.00;;;;;;5134585;27;43466;-70
2023/12/08 02:53:56;;;;;;;2.50;2.50;;;16.20;64.80;;;;;;5134823;27;43335;-71
2023/12/08 02:56:24;;;;;;;2.77;2.73;;;16.10;64.10;;;;;;5110234;27;43608;-71
2023/12/08 02:58:54;;;;;;;3.13;3.03;;;16.10;64.10;;;;;;5110602;27;43433;-71
2023/12/08 03:01:22;;;;;;;2.60;2.60;;;16.10;64.10;;;;;;5111043;27;43446;-71
2023/12/08 03:03:50;;;;;;;2.67;2.57;;;16.10;64.10;;;;;;5110653;27;44008;-71
2023/12/08 03:06:18;;;;;;;2.63;2.63;;;16.10;64.20;;;;;;5110290;27;43611;-72
2023/12/08 03:08:46;;;;;;;2.93;2.80;;;16.10;64.30;;;;;;5091798;27;44796;-72
2023/12/08 03:11:14;;;;;;;2.70;2.60;;;16.10;64.40;;;;;;5110234;27;43406;-72
2023/12/08 03:13:42;;;;;;;2.70;2.70;;;16.10;64.40;;;;;;5110622;27;43420;-72
2023/12/08 03:16:11;;;;;;;2.77;2.70;;;16.10;64.30;;;;;;5110236;27;43622;-71
2023/12/08 03:18:39;;;;;;;3.03;2.93;;;16.20;64.20;;;;;;5110700;27;43479;-72
2023/12/08 03:21:08;;;;;;;2.77;2.77;;;16.20;63.70;;;;;;5109589;27;43360;-72
2023/12/08 03:23:36;;;;;;;2.40;2.40;;;16.30;63.70;;;;;;5107677;27;43976;-72
2023/12/08 03:26:04;;;;;;;2.70;2.70;;;16.20;63.70;;;;;;5109256;27;43827;-72
2023/12/08 03:28:32;;;;;;;2.50;2.50;;;16.20;63.80;;;;;;5110340;27;43933;-72
2023/12/08 03:31:00;;;;;;;2.83;2.83;;;16.20;63.90;;;;;;5110268;27;43367;-72
2023/12/08 03:33:30;;;;;;;2.70;2.70;;;16.20;63.90;;;;;;5102150;27;43449;-72
2023/12/08 03:35:58;;;;;;;2.37;2.37;;;16.20;64.00;;;;;;5096116;27;43986;-72
2023/12/08 03:38:26;;;;;;;2.70;2.70;;;16.10;64.00;;;;;;5109788;27;43440;-71
2023/12/08 03:40:54;;;;;;;2.57;2.57;;;16.10;64.10;;;;;;5109843;27;43402;-72
2023/12/08 03:43:22;;;;;;;2.70;2.70;;;16.10;64.10;;;;;;5103594;27;43461;-72
2023/12/08 03:45:50;;;;;;;2.83;2.80;;;16.10;64.20;;;;;;5131109;27;43602;-70
2023/12/08 03:48:18;;;;;;;2.70;2.70;;;16.10;64.30;;;;;;5134605;27;43334;-71
2023/12/08 03:50:47;;;;;;;2.47;2.47;;;16.00;64.20;;;;;;5135045;27;43447;-70
2023/12/08 03:53:15;;;;;;;2.50;2.50;;;16.00;64.20;;;;;;5134465;27;43419;-70
2023/12/08 03:55:43;;;;;;;2.57;2.57;;;16.10;64.30;;;;;;5135007;27;43606;-70
2023/12/08 03:58:11;;;;;;;2.60;2.60;;;16.00;64.20;;;;;;5133868;27;43391;-70
2023/12/08 04:00:39;;;;;;;2.60;2.60;;;16.00;64.20;;;;;;5134836;27;43455;-70
2023/12/08 04:03:07;;;;;;;2.67;2.67;;;16.00;64.20;;;;;;5135292;27;43382;-70
2023/12/08 04:05:35;;;;;;;2.43;2.43;;;16.00;64.20;;;;;;5126029;27;45833;-70
2023/12/08 04:08:05;;;;;;;3.00;2.90;;;16.00;64.20;;;;;;5136038;27;43438;-70
2023/12/08 04:10:33;;;;;;;2.60;2.60;;;16.10;64.10;;;;;;5125436;27;43417;-70
2023/12/08 04:13:01;;;;;;;2.80;2.80;;;16.20;64.60;;;;;;5136668;27;43470;-70
2023/12/08 04:15:29;;;;;;;2.70;2.70;;;16.20;63.80;;;;;;5135835;27;43860;-69
2023/12/08 04:17:57;;;;;;;2.63;2.57;;;16.20;63.80;;;;;;5135942;27;43272;-70
2023/12/08 04:20:25;;;;;;;2.50;2.50;;;16.20;63.80;;;;;;5128181;27;43739;-70
2023/12/08 04:22:53;;;;;;;2.50;2.50;;;16.20;63.90;;;;;;5135570;27;43841;-69
2023/12/08 04:25:22;;;;;;;2.53;2.53;;;16.20;63.90;;;;;;5135862;27;43702;-69
2023/12/08 04:27:50;;;;;;;2.70;2.67;;;16.20;63.90;;;;;;5135476;27;43456;-69
2023/12/08 04:30:18;;;;;;;2.37;2.37;;;16.20;64.00;;;;;;5136149;27;43403;-69
2023/12/08 04:32:46;;;;;;;2.73;2.63;;;16.20;64.00;;;;;;5135346;27;43432;-68
2023/12/08 04:35:15;;;;;;;2.40;2.40;;;16.10;64.00;;;;;;5135509;27;43829;-69
2023/12/08 04:37:43;;;;;;;2.80;2.80;;;16.10;64.00;;;;;;5135646;27;43395;-70
2023/12/08 04:40:11;;;;;;;2.97;2.90;;;16.10;64.10;;;;;;5134798;27;43401;-70
2023/12/08 04:42:42;;;;;;;3.00;2.90;;;16.10;64.10;;;;;;5126686;27;43462;-70
2023/12/08 04:45:13;;;;;;;3.50;3.00;;;16.20;64.00;;;;;;5134241;27;43628;-69
2023/12/08 04:47:44;;;;;;;3.50;3.20;;;16.20;63.70;;;;;;5135514;27;43426;-69
2023/12/08 04:50:12;;;;;;;2.93;2.80;;;16.20;63.70;;;;;;5135445;27;43381;-69
2023/12/08 04:52:40;;;;;;;3.17;3.07;;;16.20;63.80;;;;;;5135953;27;43390;-70
2023/12/08 04:55:08;;;;;;;5.83;3.67;;;16.20;63.80;;;;;;5111785;27;45710;-71
2023/12/08 04:57:37;;;;;;;5.00;4.20;;;16.20;63.90;;;;;;5108677;27;43392;-70
2023/12/08 05:00:08;;;;;;;4.90;4.13;;;16.20;63.90;;;;;;5108977;27;43380;-70
2023/12/08 05:02:36;;;;;;;4.53;4.10;;;16.10;63.80;;;;;;5109292;27;43456;-71
2023/12/08 05:05:04;;;;;;;4.70;4.23;;;16.20;64.00;;;;;;5104748;27;44763;-72
2023/12/08 05:07:32;;;;;;;5.17;4.27;;;16.10;63.90;;;;;;5102013;27;44168;-72
2023/12/08 05:10:00;;;;;;;5.17;4.17;;;16.10;64.00;;;;;;5106435;27;43445;-71
2023/12/08 05:12:28;;;;;;;6.37;4.73;;;16.10;64.10;;;;;;5102615;27;43881;-72
2023/12/08 05:14:56;;;;;;;6.47;5.47;;;16.10;64.10;;;;;;5109071;27;43583;-72
2023/12/08 05:17:26;;;;;;;8.50;5.30;;;16.10;64.10;;;;;;5101582;27;43432;-72
2023/12/08 05:19:54;;;;;;;6.03;5.30;;;16.20;64.00;;;;;;5098442;27;43622;-71
2023/12/08 05:22:22;;;;;;;9.37;5.53;;;16.20;63.90;;;;;;5107868;27;43477;-71
2023/12/08 05:24:50;;;;;;;5.97;4.80;;;16.20;63.90;;;;;;5101861;27;43630;-72
2023/12/08 05:27:19;;;;;;;6.17;5.30;;;16.20;64.00;;;;;;5101314;27;45007;-72
2023/12/08 05:29:47;;;;;;;8.00;5.57;;;16.20;64.00;;;;;;5101104;27;43642;-72
2023/12/08 05:32:15;;;;;;;11.43;5.90;;;16.20;64.70;;;;;;5108681;27;44363;-72
2023/12/08 05:34:45;;;;;;;9.97;5.90;;;16.20;64.00;;;;;;5103649;27;43606;-72
2023/12/08 05:37:13;;;;;;;8.00;5.30;;;16.20;64.00;;;;;;5108084;27;43479;-72
2023/12/08 05:39:41;;;;;;;9.50;5.70;;;16.20;64.10;;;;;;5107838;27;43913;-72
2023/12/08 05:42:09;;;;;;;6.80;5.07;;;16.10;64.10;;;;;;5108564;27;43976;-71
2023/12/08 05:44:37;;;;;;;7.83;5.63;;;16.10;64.10;;;;;;5108112;27;43591;-72
2023/12/08 05:47:05;;;;;;;8.93;6.20;;;16.10;64.10;;;;;;5104255;27;43379;-72
2023/12/08 05:49:34;;;;;;;8.20;6.10;;;16.10;64.10;;;;;;5107801;27;43371;-72
2023/12/08 05:52:04;;;;;;;14.17;6.20;;;16.10;64.10;;;;;;5108115;27;43388;-72
2023/12/08 05:54:32;;;;;;;12.40;6.47;;;16.20;64.00;;;;;;5108119;27;43991;-71
2023/12/08 05:57:00;;;;;;;8.10;6.03;;;16.20;63.60;;;;;;5107722;27;43519;-71
2023/12/08 05:59:29;;;;;;;8.03;5.80;;;16.30;63.70;;;;;;5100818;27;43423;-72
2023/12/08 06:01:57;;;;;;;10.60;6.50;;;16.20;63.70;;;;;;5108202;27;43886;-71
2023/12/08 06:04:25;;;;;;;9.17;6.03;;;16.20;63.70;;;;;;5114281;27;43614;-71
2023/12/08 06:06:53;;;;;;;9.83;6.20;;;16.20;63.80;;;;;;5132619;27;43359;-70
2023/12/08 06:09:23;;;;;;;8.73;6.07;;;16.20;63.70;;;;;;5131942;27;43375;-70
2023/12/08 06:11:51;;;;;;;9.97;5.97;;;16.20;63.80;;;;;;5132550;27;43426;-69
2023/12/08 06:14:19;;;;;;;6.90;5.67;;;16.20;64.00;;;;;;5131723;27;43699;-69
2023/12/08 06:16:47;;;;;;;7.10;5.80;;;16.20;64.00;;;;;;5132006;27;43437;-69
2023/12/08 06:19:15;;;;;;;6.03;5.07;;;16.10;64.00;;;;;;5132264;27;43393;-70
2023/12/08 06:21:43;;;;;;;6.57;5.40;;;16.10;64.10;;;;;;5134546;27;43564;-70
2023/12/08 06:24:11;;;;;;;8.80;6.30;;;16.10;64.10;;;;;;5125448;27;46221;-72
2023/12/08 06:26:43;;;;;;;9.00;5.90;;;16.10;64.10;;;;;;5097789;27;44710;-72
2023/12/08 06:29:13;;;;;;;7.27;6.00;;;16.10;64.10;;;;;;5111271;27;43844;-72
2023/12/08 06:31:41;;;;;;;6.73;5.13;;;16.10;64.10;;;;;;5110709;27;43640;-72
2023/12/08 06:34:11;;;;;;;8.13;5.20;;;16.10;64.10;;;;;;5092285;27;45397;-72
2023/12/08 06:36:48;;;;;;;6.10;5.47;;;16.10;64.20;;;;;;5110694;27;43447;-72
2023/12/08 06:39:17;;;;;;;7.37;5.63;;;16.10;64.30;;;;;;5110754;27;43351;-72
2023/12/08 06:41:46;;;;;;;6.00;5.37;;;16.10;64.20;;;;;;5105732;27;43448;-72
2023/12/08 06:44:14;;;;;;;5.60;5.10;;;16.10;64.20;;;;;;5110833;27;43752;-71
2023/12/08 06:46:43;;;;;;;7.43;6.03;;;16.20;64.90;;;;;;5110730;27;43474;-72
2023/12/08 06:49:13;;;;;;;5.77;5.27;;;16.30;63.80;;;;;;5110805;27;43401;-71
2023/12/08 06:51:44;;;;;;;6.00;5.40;;;16.30;63.60;;;;;;5111196;27;43390;-72
2023/12/08 06:54:12;;;;;;;6.97;5.80;;;16.30;63.60;;;;;;5111024;27;43607;-72
2023/12/08 06:56:41;;;;;;;6.73;5.70;;;16.30;63.70;;;;;;5110513;27;43521;-72
2023/12/08 06:59:11;;;;;;;9.20;5.80;;;16.30;63.80;;;;;;5110918;27;43468;-72
2023/12/08 07:01:39;;;;;;;6.13;5.30;;;16.30;63.80;;;;;;5110654;27;43450;-72
2023/12/08 07:04:07;;;;;;;5.87;5.20;;;16.30;63.80;;;;;;5110557;27;43607;-72
2023/12/08 07:06:35;;;;;;;5.90;5.30;;;16.20;63.80;;;;;;5110638;27;43488;-72
2023/12/08 07:09:03;;;;;;;5.63;5.23;;;16.20;63.90;;;;;;5104196;27;43450;-72
2023/12/08 07:11:32;;;;;;;6.07;5.47;;;16.20;63.90;;;;;;5108354;27;43497;-72
2023/12/08 07:14:00;;;;;;;6.33;5.30;;;16.20;64.00;;;;;;5111419;27;43986;-71
2023/12/08 07:16:29;;;;;;;7.40;5.23;;;16.10;64.00;;;;;;5101749;27;43439;-72
2023/12/08 07:18:57;;;;;;;5.70;5.10;;;16.10;64.10;;;;;;5110252;27;43459;-72
2023/12/08 07:21:26;;;;;;;7.20;5.77;;;16.10;64.00;;;;;;5110117;27;43493;-71
2023/12/08 07:23:54;;;;;;;5.50;5.00;;;16.10;64.10;;;;;;5110222;27;43595;-71
2023/12/08 07:26:22;;;;;;;5.57;5.17;;;16.10;64.10;;;;;;5110031;27;43559;-71
2023/12/08 07:28:50;;;;;;;5.73;5.10;;;16.10;64.20;;;;;;5110458;27;43437;-71
2023/12/08 07:31:18;;;;;;;6.30;5.70;;;16.10;64.20;;;;;;5094611;27;43445;-71
2023/12/08 07:33:47;;;;;;;5.77;5.17;;;16.10;64.30;;;;;;5110750;27;43607;-71
2023/12/08 07:36:15;;;;;;;5.57;5.10;;;16.10;64.30;;;;;;5115177;27;44902;-70
2023/12/08 07:38:44;;;;;;;6.00;5.43;;;16.20;64.00;;;;;;5133903;27;43400;-70
2023/12/08 07:41:12;;;;;;;5.73;4.97;;;16.30;63.80;;;;;;5134273;27;43437;-70
2023/12/08 07:43:40;;;;;;;5.37;4.80;;;16.20;63.70;;;;;;5128801;27;45840;-70
2023/12/08 07:46:08;;;;;;;5.47;5.07;;;16.30;63.80;;;;;;5133996;27;43320;-69
2023/12/08 07:48:36;;;;;;;5.50;5.10;;;16.20;63.80;;;;;;5133653;27;43371;-70
2023/12/08 07:51:06;;;;;;;5.77;5.27;;;16.20;63.90;;;;;;5133860;27;43522;-70
2023/12/08 07:53:34;;;;;;;5.33;4.93;;;16.20;63.90;;;;;;5133158;27;44027;-70
2023/12/08 07:56:03;;;;;;;5.47;5.07;;;16.20;64.00;;;;;;5133667;27;43533;-70
2023/12/08 07:58:31;;;;;;;4.87;4.47;;;16.20;64.00;;;;;;5133856;27;43530;-69
2023/12/08 08:00:59;;;;;;;5.33;4.93;;;16.20;64.00;;;;;;5128329;27;43447;-70
2023/12/08 08:03:27;;;;;;;5.43;5.03;;;16.10;64.00;;;;;;5133496;27;43668;-70
2023/12/08 08:05:55;;;;;;;5.00;4.60;;;16.20;64.20;;;;;;5132529;27;43434;-70
2023/12/08 08:08:24;;;;;;;5.07;4.67;;;16.10;64.10;;;;;;5133288;27;43446;-70
2023/12/08 08:10:53;;;;;;;5.13;4.80;;;16.10;64.20;;;;;;5133843;27;43473;-70
2023/12/08 08:13:21;;;;;;;4.80;4.50;;;16.10;64.20;;;;;;5133319;27;43595;-70
2023/12/08 08:15:49;;;;;;;4.87;4.53;;;16.10;64.30;;;;;;5133398;27;43397;-69
2023/12/08 08:18:17;;;;;;;5.17;4.77;;;16.10;64.30;;;;;;5124329;27;43817;-69
2023/12/08 08:20:45;;;;;;;5.77;5.27;;;16.10;64.30;;;;;;5133434;27;43375;-70
2023/12/08 08:23:13;;;;;;;5.07;4.77;;;16.10;64.30;;;;;;5132277;27;43598;-70
2023/12/08 08:25:43;;;;;;;5.27;4.87;;;16.10;64.30;;;;;;5133141;27;43371;-69
2023/12/08 08:28:11;;;;;;;5.43;5.00;;;16.10;64.30;;;;;;5135979;27;43358;-69
2023/12/08 08:30:40;;;;;;;4.90;4.60;;;16.20;64.10;;;;;;5136209;27;43572;-68
2023/12/08 08:33:08;;;;;;;5.50;5.10;;;16.30;63.80;;;;;;5135587;27;43668;-69
2023/12/08 08:35:36;;;;;;;4.73;4.40;;;16.30;63.80;;;;;;5135647;27;43391;-70
2023/12/08 08:38:04;;;;;;;4.93;4.53;;;16.30;63.80;;;;;;5133697;27;43427;-69
2023/12/08 08:40:33;;;;;;;5.30;4.90;;;16.30;63.90;;;;;;5135948;27;43426;-70
2023/12/08 08:43:02;;;;;;;4.83;4.57;;;16.20;63.90;;;;;;5135087;27;43669;-69
2023/12/08 08:45:30;;;;;;;4.53;4.23;;;16.20;63.90;;;;;;5116838;27;43354;-71
2023/12/08 08:47:58;;;;;;;4.80;4.47;;;16.20;64.00;;;;;;5109324;27;43464;-71
2023/12/08 08:50:26;;;;;;;5.27;4.87;;;16.20;64.00;;;;;;5109739;27;43374;-71
2023/12/08 08:53:07;;;;;;;5.17;4.77;;;16.20;64.20;;;;;;5105349;27;43867;-71
2023/12/08 08:55:35;;;;;;;4.90;4.60;;;16.20;65.00;;;;;;5102550;27;43372;-71
2023/12/08 08:58:04;;;;;;;4.80;4.50;;;16.10;64.30;;;;;;5102451;27;43431;-71
2023/12/08 09:00:32;;;;;;;5.10;4.80;;;16.10;64.30;;;;;;5109289;27;43499;-71
2023/12/08 09:03:01;;;;;;;4.10;3.90;;;16.10;64.40;;;;;;5104294;27;43725;-71
2023/12/08 09:05:30;;;;;;;5.00;4.60;;;16.10;64.40;;;;;;5108992;27;43433;-71
2023/12/08 09:07:58;;;;;;;4.80;4.50;;;16.10;64.30;;;;;;5105475;27;44079;-71
2023/12/08 09:10:26;;;;;;;4.77;4.47;;;16.10;64.30;;;;;;5108981;27;43992;-71
2023/12/08 09:12:54;;;;;;;5.40;5.10;;;16.10;64.30;;;;;;5108467;27;43925;-71
2023/12/08 09:15:24;;;;;;;4.90;4.50;;;16.10;64.40;;;;;;5096635;27;44860;-71
2023/12/08 09:17:52;;;;;;;5.37;5.07;;;16.10;65.20;;;;;;5108620;27;43426;-71
2023/12/08 09:20:20;;;;;;;4.97;4.67;;;16.10;64.30;;;;;;5107695;27;43435;-71
2023/12/08 09:22:48;;;;;;;4.40;4.20;;;16.20;64.00;;;;;;5108133;27;43611;-71
2023/12/08 09:25:17;;;;;;;4.70;4.47;;;16.30;64.00;;;;;;5108609;27;43479;-71
2023/12/08 09:27:45;;;;;;;4.90;4.60;;;16.30;64.10;;;;;;5108627;27;43422;-71
2023/12/08 09:30:14;;;;;;;4.80;4.50;;;16.30;64.10;;;;;;5108645;27;43454;-71
2023/12/08 09:32:43;;;;;;;5.73;5.33;;;16.20;64.10;;;;;;5094619;27;45408;-71
2023/12/08 09:35:11;;;;;;;4.67;4.40;;;16.20;64.10;;;;;;5099134;27;44680;-71
2023/12/08 09:37:39;;;;;;;5.20;4.90;;;16.20;64.20;;;;;;5108532;27;43565;-71
2023/12/08 09:40:09;;;;;;;4.70;4.40;;;16.20;64.20;;;;;;5103456;27;43457;-72
2023/12/08 09:42:40;;;;;;;4.83;4.43;;;16.20;64.30;;;;;;5107894;27;44086;-71
2023/12/08 09:45:09;;;;;;;4.07;3.90;;;16.20;64.40;;;;;;5107745;27;43486;-71
2023/12/08 09:47:38;;;;;;;5.37;4.97;;;16.10;64.40;;;;;;5094287;27;43361;-71
2023/12/08 09:50:09;;;;;;;4.40;4.20;;;16.10;64.30;;;;;;5108495;27;43400;-71
2023/12/08 09:52:38;;;;;;;4.60;4.40;;;16.10;64.40;;;;;;5107834;27;44079;-71
2023/12/08 09:55:07;;;;;;;4.60;4.30;;;16.10;64.40;;;;;;5121008;27;43424;-70
2023/12/08 09:57:35;;;;;;;4.53;4.30;;;16.10;64.40;;;;;;5134485;27;43405;-70
2023/12/08 10:00:05;;;;;;;4.73;4.43;;;16.10;64.50;;;;;;5134616;27;43530;-68
2023/12/08 10:02:33;;;;;;;3.90;3.70;;;16.10;64.50;;;;;;5134371;27;43602;-70
2023/12/08 10:05:02;;;;;;;4.60;4.40;;;16.10;64.50;;;;;;5134560;27;43399;-69
2023/12/08 10:07:32;;;;;;;4.60;4.40;;;16.10;64.60;;;;;;5134858;27;43441;-69
2023/12/08 10:10:00;;;;;;;4.87;4.57;;;16.10;65.30;;;;;;5124351;27;43389;-70
2023/12/08 10:12:28;;;;;;;4.60;4.40;;;16.20;64.50;;;;;;5131328;27;43916;-69
2023/12/08 10:14:57;;;;;;;4.40;4.20;;;16.20;64.10;;;;;;5134001;27;43413;-69
2023/12/08 10:17:25;;;;;;;4.90;4.60;;;16.30;64.10;;;;;;5122479;27;43407;-70
2023/12/08 10:20:10;;;;;;;4.63;4.37;;;16.30;64.10;;;;;;5134833;27;43468;-69
2023/12/08 10:22:50;;;;;;;3.93;3.73;;;16.30;64.20;;;;;;5133403;27;43915;-68
2023/12/08 10:25:18;;;;;;;4.93;4.63;;;16.20;64.20;;;;;;5128579;27;43392;-70
2023/12/08 10:27:47;;;;;;;4.20;4.07;;;16.20;65.00;;;;;;5134454;27;43454;-70
2023/12/08 10:30:15;;;;;;;4.10;3.90;;;16.20;64.30;;;;;;5134372;27;43410;-70
2023/12/08 10:32:43;;;;;;;4.00;3.90;;;16.20;64.40;;;;;;5134102;27;43843;-69
2023/12/08 10:35:12;;;;;;;3.83;3.73;;;16.20;64.40;;;;;;5134101;27;43414;-70
2023/12/08 10:37:40;;;;;;;3.73;3.53;;;16.20;64.50;;;;;;5129321;27;43723;-70
2023/12/08 10:40:12;;;;;;;4.47;4.17;;;16.10;64.50;;;;;;5134545;27;43378;-70
2023/12/08 10:42:40;;;;;;;4.30;4.10;;;16.10;64.50;;;;;;5129214;27;48179;-70
2023/12/08 10:45:10;;;;;;;4.50;4.20;;;16.10;65.30;;;;;;5119311;27;43481;-71
2023/12/08 10:47:41;;;;;;;3.87;3.73;;;16.10;64.50;;;;;;5107722;27;43473;-71
2023/12/08 10:50:14;;;;;;;4.03;3.83;;;16.10;64.60;;;;;;5100799;27;44005;-71
2023/12/08 10:52:42;;;;;;;4.57;4.37;;;16.10;64.60;;;;;;5107353;27;43563;-71
2023/12/08 10:55:11;;;;;;;3.73;3.63;;;16.10;64.70;;;;;;5107205;27;43405;-71
2023/12/08 10:57:42;;;;;;;4.50;4.30;;;16.10;64.70;;;;;;5107306;27;43387;-71
2023/12/08 11:00:15;;;;;;;4.20;4.00;;;16.10;64.60;;;;;;5108229;27;43284;-71
2023/12/08 11:02:48;;;;;;;3.77;3.63;;;16.10;64.70;;;;;;5100208;27;46305;-71
2023/12/08 11:05:19;;;;;;;3.90;3.80;;;16.10;64.70;;;;;;5121793;27;43353;-70
2023/12/08 11:07:47;;;;;;;3.73;3.53;;;16.10;64.70;;;;;;5126024;27;43434;-70
2023/12/08 11:10:18;;;;;;;4.10;3.90;;;16.10;64.70;;;;;;5134602;27;43404;-70
2023/12/08 11:12:49;;;;;;;4.00;3.80;;;16.10;64.70;;;;;;5128351;27;43867;-70
2023/12/08 11:15:18;;;;;;;4.00;3.90;;;16.10;64.80;;;;;;5134348;27;43598;-70
2023/12/08 11:17:50;;;;;;;3.73;3.63;;;16.10;64.80;;;;;;5128119;27;43312;-69
2023/12/08 11:20:19;;;;;;;4.00;3.80;;;16.10;64.70;;;;;;5125992;27;43437;-70
2023/12/08 11:22:47;;;;;;;4.10;3.90;;;16.20;64.50;;;;;;5132928;27;43599;-70
2023/12/08 11:25:20;;;;;;;4.07;3.93;;;16.30;64.20;;;;;;5127657;27;44678;-70
2023/12/08 11:27:51;;;;;;;3.93;3.70;;;16.30;64.10;;;;;;5134293;27;43448;-70
2023/12/08 11:30:21;;;;;;;3.63;3.53;;;16.30;64.20;;;;;;5134539;27;43453;-70
2023/12/08 11:32:52;;;;;;;4.00;3.80;;;16.30;64.30;;;;;;5134257;27;43846;-70
2023/12/08 11:35:21;;;;;;;3.90;3.70;;;16.30;64.40;;;;;;5134470;27;43392;-69
2023/12/08 11:37:49;;;;;;;3.83;3.73;;;16.30;64.50;;;;;;5134073;27;43427;-70
2023/12/08 11:40:19;;;;;;;3.83;3.63;;;16.30;64.50;;;;;;5129378;27;43459;-70
2023/12/08 11:42:48;;;;;;;3.60;3.50;;;16.30;64.50;;;;;;5134467;27;43667;-70
2023/12/08 11:45:16;;;;;;;3.27;3.17;;;16.20;64.50;;;;;;5133733;27;43416;-70
2023/12/08 11:47:44;;;;;;;3.30;3.20;;;16.20;64.60;;;;;;5134300;27;43398;-70
2023/12/08 11:50:12;;;;;;;3.70;3.60;;;16.20;64.60;;;;;;5134468;27;43458;-69
2023/12/08 11:52:43;;;;;;;3.70;3.60;;;16.20;64.70;;;;;;5133245;27;43610;-69
2023/12/08 11:55:15;;;;;;;3.60;3.50;;;16.20;64.60;;;;;;5117459;27;43304;-71
2023/12/08 11:58:06;;;;;;;3.60;3.50;;;16.20;64.40;;;;;;5109921;27;43506;-71
2023/12/08 12:00:35;;;;;;;3.40;3.30;;;16.20;64.40;;;;;;5104410;27;43381;-71
2023/12/08 12:03:04;;;;;;;3.40;3.30;;;16.20;64.40;;;;;;5108564;27;44100;-71
2023/12/08 12:05:32;;;;;;;3.73;3.63;;;16.30;64.60;;;;;;5108745;27;43513;-71
2023/12/08 12:08:00;;;;;;;4.00;3.80;;;16.20;64.40;;;;;;5110379;27;43533;-71
2023/12/08 12:10:29;;;;;;;3.53;3.43;;;16.20;64.50;;;;;;5093572;27;44087;-71
2023/12/08 12:13:04;;;;;;;3.33;3.23;;;16.20;64.50;;;;;;5109730;27;43894;-71
2023/12/08 12:15:34;;;;;;;3.53;3.43;;;16.20;64.60;;;;;;5125024;27;44786;-70
2023/12/08 12:18:03;;;;;;;3.40;3.30;;;16.20;64.60;;;;;;5122702;27;43417;-70
2023/12/08 12:20:35;;;;;;;3.27;3.17;;;16.20;64.60;;;;;;5132960;27;43347;-70
2023/12/08 12:23:03;;;;;;;3.30;3.20;;;16.20;64.70;;;;;;5115193;27;45000;-70
2023/12/08 12:25:32;;;;;;;3.30;3.20;;;16.20;64.80;;;;;;5132756;27;43361;-70
2023/12/08 12:28:00;;;;;;;3.37;3.27;;;16.20;64.80;;;;;;5133518;27;43427;-69
2023/12/08 12:30:28;;;;;;;2.90;2.80;;;16.20;64.80;;;;;;5134018;27;44055;-69
2023/12/08 12:32:57;;;;;;;3.30;3.20;;;16.20;64.90;;;;;;5133820;27;43868;-69
2023/12/08 12:35:27;;;;;;;3.10;3.00;;;16.20;64.80;;;;;;5132806;27;43850;-69
2023/12/08 12:37:55;;;;;;;2.97;2.90;;;16.20;64.90;;;;;;5126259;27;43500;-69
2023/12/08 12:40:24;;;;;;;3.10;3.00;;;16.10;64.80;;;;;;5124694;27;43482;-70
2023/12/08 12:42:52;;;;;;;3.27;3.17;;;16.10;64.80;;;;;;5129271;27;45602;-70
2023/12/08 12:45:27;;;;;;;3.20;3.10;;;16.20;65.00;;;;;;5133001;27;43327;-70
2023/12/08 12:48:03;;;;;;;3.70;3.60;;;16.20;64.80;;;;;;5132971;27;43605;-70
2023/12/08 12:50:31;;;;;;;3.73;3.63;;;16.30;64.50;;;;;;5132976;27;43389;-70
2023/12/08 12:53:05;;;;;;;3.20;3.10;;;16.30;64.20;;;;;;5131874;27;43931;-70